Time;durP1;ratioP1;P1;durP2;ratioP2;P2;SDS_P1;SDS_P2;PMS_P1;PMS_P2;Temp;Humidity;BMP_temperature;BMP_pressure;BME280_temperature;BME280_humidity;BME280_pressure;Samples;Min_cycle;Max_cycle;Signal;HPM_P1;HPM_P2
2022/04/30 00:01:30;;;;;;;9.30;3.83;;;;;;;10.31;83.59;101686.66;5180651;28;20030;-77
2022/04/30 00:04:00;;;;;;;6.88;3.63;;;;;;;10.31;84.04;101691.88;5181819;28;20036;-78
2022/04/30 00:06:30;;;;;;;6.90;3.78;;;;;;;10.28;83.97;101686.72;5181072;28;20022;-77
2022/04/30 00:09:01;;;;;;;7.90;4.03;;;;;;;10.37;83.20;101694.38;5181482;28;20500;-77
2022/04/30 00:11:31;;;;;;;8.93;4.23;;;;;;;10.22;84.51;101691.19;5180700;28;20079;-77
2022/04/30 00:14:01;;;;;;;7.53;3.50;;;;;;;10.23;84.23;101683.31;5185803;28;20271;-77
2022/04/30 00:16:31;;;;;;;8.60;3.90;;;;;;;10.15;83.87;101690.41;5183633;28;20018;-78
2022/04/30 00:19:02;;;;;;;9.27;3.83;;;;;;;10.13;84.33;101686.13;5189349;28;20021;-77
2022/04/30 00:21:32;;;;;;;11.00;3.92;;;;;;;10.10;84.46;101692.25;5171109;28;20422;-77
2022/04/30 00:24:02;;;;;;;6.32;3.63;;;;;;;10.04;84.65;101681.03;5181012;28;20026;-77
2022/04/30 00:26:33;;;;;;;7.63;3.80;;;;;;;10.12;84.96;101679.13;5162907;28;20026;-77
2022/04/30 00:29:03;;;;;;;6.35;3.60;;;;;;;10.12;84.66;101673.91;5207579;22;20495;-79
2022/04/30 00:31:35;;;;;;;7.20;3.72;;;;;;;10.10;84.09;101671.34;5189476;28;20028;-79
2022/04/30 00:34:05;;;;;;;6.30;3.22;;;;;;;9.96;84.40;101672.44;5183677;28;20348;-82
2022/04/30 00:36:36;;;;;;;11.18;3.95;;;;;;;9.96;84.06;101661.97;5183699;28;20021;-81
2022/04/30 00:39:06;;;;;;;9.20;3.95;;;;;;;10.07;84.57;101670.53;5155909;28;20037;-82
2022/04/30 00:41:47;;;;;;;6.30;3.50;;;;;;;9.94;84.26;101674.16;5160043;28;20030;-79
2022/04/30 00:44:18;;;;;;;8.98;4.10;;;;;;;10.10;83.96;101667.84;5153444;28;20045;-79
2022/04/30 00:46:49;;;;;;;6.72;3.50;;;;;;;9.97;83.84;101672.38;5171868;28;20547;-82
2022/04/30 00:49:20;;;;;;;7.35;3.38;;;;;;;10.00;84.65;101674.09;5155808;28;20022;-79
2022/04/30 00:51:52;;;;;;;6.25;3.10;;;;;;;9.98;84.25;101671.50;5168897;28;20026;-78
2022/04/30 00:54:24;;;;;;;6.65;3.72;;;;;;;10.04;84.36;101670.56;5163310;28;20030;-79
2022/04/30 00:57:01;;;;;;;9.30;3.72;;;;;;;9.91;83.94;101669.88;5145263;28;20026;-79
2022/04/30 00:59:32;;;;;;;5.97;3.10;;;;;;;9.83;84.82;101670.88;5142747;28;20022;-83
2022/04/30 01:02:03;;;;;;;7.93;3.40;;;;;;;9.78;85.01;101672.69;5145618;28;20049;-79
2022/04/30 01:04:33;;;;;;;6.65;3.30;;;;;;;9.94;84.54;101674.16;5163937;28;20026;-79
2022/04/30 01:07:08;;;;;;;7.15;3.42;;;;;;;9.83;84.70;101665.66;5144821;28;20053;-78
2022/04/30 01:09:42;;;;;;;7.32;3.70;;;;;;;9.92;85.08;101665.50;5162498;28;20034;-81
2022/04/30 01:12:13;;;;;;;6.43;3.58;;;;;;;9.85;84.98;101674.31;5165420;28;20038;-81
2022/04/30 01:14:45;;;;;;;10.57;3.95;;;;;;;9.75;85.32;101668.38;5153878;28;20498;-80
2022/04/30 01:17:16;;;;;;;7.28;3.80;;;;;;;9.50;86.35;101673.97;5166674;28;20034;-79
2022/04/30 01:19:47;;;;;;;6.28;3.55;;;;;;;9.46;87.12;101670.53;5180339;28;20506;-79
2022/04/30 01:22:33;;;;;;;8.02;3.65;;;;;;;9.48;87.01;101673.13;5168512;28;20042;-79
2022/04/30 01:25:04;;;;;;;10.35;3.55;;;;;;;9.51;87.20;101678.31;5163460;28;20030;-78
2022/04/30 01:27:35;;;;;;;6.60;3.70;;;;;;;9.64;86.21;101682.47;5165882;28;20037;-79
2022/04/30 01:30:06;;;;;;;7.70;3.70;;;;;;;9.65;86.06;101684.19;5166431;28;20034;-79
2022/04/30 01:38:15;;;;;;;7.82;3.50;;;;;;;9.66;86.23;101686.78;5165037;28;20121;-79
2022/04/30 01:40:46;;;;;;;6.70;3.60;;;;;;;9.72;86.22;101683.22;5165413;28;20611;-80
2022/04/30 01:43:16;;;;;;;7.65;3.65;;;;;;;9.84;85.87;101680.44;5149346;28;20350;-81
2022/04/30 01:45:47;;;;;;;8.55;3.70;;;;;;;9.74;86.57;101679.72;5170182;28;20031;-80
2022/04/30 01:48:17;;;;;;;10.55;4.05;;;;;;;9.80;86.09;101666.56;5170115;28;20061;-81
2022/04/30 01:50:48;;;;;;;11.50;3.80;;;;;;;9.62;86.61;101671.19;5177666;28;20034;-79
2022/04/30 01:53:18;;;;;;;6.85;3.92;;;;;;;9.71;85.92;101669.31;5165850;28;20118;-79
2022/04/30 01:55:49;;;;;;;8.50;3.92;;;;;;;9.67;86.75;101658.94;5165248;28;20741;-79
2022/04/30 01:58:20;;;;;;;12.57;4.03;;;;;;;9.54;88.02;101653.03;5165591;28;20118;-80
2022/04/30 02:00:50;;;;;;;8.38;4.20;;;;;;;9.74;87.32;101656.22;5147699;28;20026;-79
2022/04/30 02:03:21;;;;;;;9.80;4.30;;;;;;;9.59;87.28;101655.56;5148143;28;20030;-79
2022/04/30 02:05:51;;;;;;;7.15;3.95;;;;;;;9.68;86.84;101658.06;5165294;28;20029;-79
2022/04/30 02:08:22;;;;;;;10.63;3.90;;;;;;;9.52;87.35;101659.16;5165230;28;20050;-80
2022/04/30 02:10:52;;;;;;;8.27;3.78;;;;;;;9.48;87.38;101657.47;5164874;28;20031;-79
2022/04/30 02:13:26;;;;;;;7.50;3.97;;;;;;;9.52;88.13;101659.16;5167532;28;20503;-79
2022/04/30 02:15:57;;;;;;;8.85;3.92;;;;;;;9.55;87.08;101653.88;5178607;28;20064;-79
2022/04/30 02:18:29;;;;;;;12.93;4.30;;;;;;;9.49;88.13;101659.19;5148679;28;20389;-79
2022/04/30 02:20:59;;;;;;;11.32;4.20;;;;;;;9.65;87.31;101653.72;5176058;28;20030;-79
2022/04/30 02:23:31;;;;;;;10.93;4.10;;;;;;;9.62;87.70;101659.00;5146023;28;20037;-79
2022/04/30 02:26:04;;;;;;;11.25;4.30;;;;;;;9.61;87.88;101646.84;5164249;28;20040;-80
2022/04/30 02:28:36;;;;;;;8.50;4.13;;;;;;;9.66;87.92;101636.34;5163497;28;20033;-78
2022/04/30 02:31:06;;;;;;;7.45;3.88;;;;;;;9.48;87.96;101640.06;5165839;28;20034;-81
2022/04/30 02:33:37;;;;;;;7.93;3.95;;;;;;;9.50;88.38;101634.81;5164671;28;20037;-78
2022/04/30 02:36:08;;;;;;;6.30;3.65;;;;;;;9.40;88.58;101628.00;5164047;28;20440;-81
2022/04/30 02:38:38;;;;;;;6.93;3.92;;;;;;;9.28;88.62;101636.03;5146149;28;20030;-81
2022/04/30 02:41:08;;;;;;;7.53;3.90;;;;;;;9.39;88.62;101634.97;5141401;28;20027;-78
2022/04/30 02:43:39;;;;;;;10.48;4.13;;;;;;;9.37;88.83;101622.84;5163217;28;20484;-74
2022/04/30 02:46:13;;;;;;;8.73;3.88;;;;;;;9.26;88.56;101620.38;5172663;28;20046;-74
2022/04/30 02:48:43;;;;;;;8.00;3.75;;;;;;;9.13;89.09;101630.13;5173987;28;20029;-79
2022/04/30 02:51:15;;;;;;;10.63;3.97;;;;;;;9.23;89.99;101623.03;5172463;28;20457;-79
2022/04/30 02:53:45;;;;;;;10.32;4.53;;;;;;;9.07;89.54;101623.22;5170518;28;20026;-77
2022/04/30 02:56:15;;;;;;;11.50;4.22;;;;;;;9.08;90.43;101629.31;5167768;28;20038;-74
2022/04/30 03:01:35;;;;;;;7.93;3.58;;;;;;;9.20;89.71;101622.19;5165162;28;20289;-79
2022/04/30 03:04:06;;;;;;;10.75;4.25;;;;;;;9.06;89.51;101621.50;5168580;28;20085;-74
2022/04/30 03:06:36;;;;;;;9.52;4.28;;;;;;;9.00;89.66;101618.13;5171569;28;20034;-80
2022/04/30 03:09:06;;;;;;;7.03;3.70;;;;;;;9.11;88.88;101618.84;5168089;28;20480;-75
2022/04/30 03:11:36;;;;;;;7.20;3.87;;;;;;;8.98;90.15;101622.50;5170724;28;20019;-79
2022/04/30 03:14:07;;;;;;;13.05;4.00;;;;;;;9.02;90.36;101613.75;5174084;28;20324;-79
2022/04/30 03:22:16;;;;;;;11.80;3.97;;;;;;;8.77;90.99;101613.19;5177780;28;20041;-78
2022/04/30 03:24:47;;;;;;;8.82;3.95;;;;;;;8.89;90.77;101615.66;5172706;28;20026;-78
2022/04/30 03:27:18;;;;;;;8.00;4.20;;;;;;;8.97;89.64;101612.94;5172561;28;20045;-77
2022/04/30 03:29:48;;;;;;;9.80;4.15;;;;;;;8.94;89.89;101611.25;5172952;28;20281;-77
2022/04/30 03:32:20;;;;;;;10.10;4.13;;;;;;;8.89;90.62;101612.19;5172455;28;20030;-77
2022/04/30 03:34:51;;;;;;;8.77;3.90;;;;;;;8.91;90.42;101607.81;5172181;28;20014;-77
2022/04/30 03:37:22;;;;;;;7.10;3.75;;;;;;;8.98;90.74;101612.94;5172770;28;20109;-77
2022/04/30 03:39:52;;;;;;;8.07;4.18;;;;;;;8.86;90.84;101602.66;5155135;28;20050;-77
2022/04/30 03:42:22;;;;;;;11.02;4.32;;;;;;;8.71;91.83;101612.41;5182711;28;20014;-76
2022/04/30 03:44:53;;;;;;;11.88;4.32;;;;;;;8.75;92.05;101607.13;5178797;28;20022;-78
2022/04/30 03:47:23;;;;;;;7.50;3.83;;;;;;;8.86;90.78;101600.03;5171891;28;20087;-75
2022/04/30 03:49:53;;;;;;;8.20;4.30;;;;;;;8.85;91.51;101606.13;5168893;28;20019;-75
2022/04/30 03:52:24;;;;;;;8.73;4.32;;;;;;;8.86;90.47;101610.47;5175825;28;20033;-76
2022/04/30 03:54:54;;;;;;;12.02;4.70;;;;;;;8.89;91.77;101613.03;5173140;28;20472;-75
2022/04/30 03:57:25;;;;;;;7.03;4.03;;;;;;;8.90;91.06;101604.34;5171814;28;20057;-74
2022/04/30 03:59:56;;;;;;;9.02;4.43;;;;;;;8.70;92.41;101613.28;5155555;28;20018;-76
2022/04/30 04:02:27;;;;;;;12.45;4.38;;;;;;;8.76;92.33;101611.44;5172319;28;20034;-76
2022/04/30 04:04:58;;;;;;;13.95;4.32;;;;;;;8.81;91.41;101614.00;5172826;28;20026;-75
2022/04/30 04:07:30;;;;;;;7.65;4.55;;;;;;;8.92;91.11;101615.59;5171783;28;20026;-75
2022/04/30 04:10:00;;;;;;;14.75;4.07;;;;;;;9.09;90.40;101616.25;5151000;28;20169;-75
2022/04/30 04:12:31;;;;;;;9.02;4.35;;;;;;;9.04;90.83;101612.84;5165983;28;20041;-76
2022/04/30 04:17:50;;;;;;;11.88;3.90;;;;;;;8.90;91.05;101609.53;5173391;28;20050;-77
2022/04/30 04:20:27;;;;;;;10.98;4.30;;;;;;;8.89;91.58;101610.44;5186654;28;20030;-76
2022/04/30 04:22:57;;;;;;;10.02;4.38;;;;;;;8.92;91.56;101607.78;5172021;28;20027;-76
2022/04/30 04:28:17;;;;;;;10.45;4.65;;;;;;;9.00;91.13;101612.91;5170198;28;20670;-76
2022/04/30 04:30:47;;;;;;;8.05;4.05;;;;;;;9.15;91.80;101605.75;5171162;28;20030;-76
2022/04/30 04:33:17;;;;;;;8.63;4.10;;;;;;;9.24;90.55;101616.06;5172027;28;20022;-76
2022/04/30 04:35:47;;;;;;;13.02;4.30;;;;;;;9.31;90.16;101620.31;5172025;28;20062;-76
2022/04/30 04:38:18;;;;;;;7.35;4.05;;;;;;;9.24;90.32;101618.66;5154483;28;20045;-76
2022/04/30 04:40:48;;;;;;;7.88;4.28;;;;;;;9.22;91.11;101615.22;5154956;28;20038;-76
2022/04/30 04:43:18;;;;;;;9.75;4.07;;;;;;;9.24;90.58;101618.66;5153392;28;20145;-77
2022/04/30 04:45:49;;;;;;;9.02;3.83;;;;;;;9.18;90.56;101624.81;5171458;28;20492;-78
2022/04/30 04:48:19;;;;;;;9.65;4.25;;;;;;;9.27;90.28;101614.28;5176370;28;20034;-75
2022/04/30 04:50:51;;;;;;;8.27;3.47;;;;;;;9.35;90.25;101617.63;5183829;28;20090;-76
2022/04/30 04:53:21;;;;;;;11.57;3.70;;;;;;;9.38;89.12;101624.56;5171119;28;20420;-76
2022/04/30 04:55:51;;;;;;;10.93;3.50;;;;;;;9.36;89.09;101622.00;5172523;28;20045;-76
2022/04/30 04:58:22;;;;;;;12.27;3.67;;;;;;;9.50;89.92;101627.00;5171876;28;20034;-74
2022/04/30 05:00:52;;;;;;;8.07;3.53;;;;;;;9.55;89.51;101627.78;5170991;28;20526;-74
2022/04/30 05:03:22;;;;;;;9.13;3.70;;;;;;;9.65;89.39;101622.41;5172308;28;20045;-75
2022/04/30 05:05:52;;;;;;;7.20;3.47;;;;;;;9.64;88.83;101627.66;5172508;28;20085;-75
2022/04/30 05:08:23;;;;;;;9.48;3.60;;;;;;;9.78;88.44;101631.78;5171319;28;20859;-76
2022/04/30 05:10:53;;;;;;;11.00;3.58;;;;;;;9.88;86.66;101627.28;5172861;28;20033;-76
2022/04/30 05:13:23;;;;;;;6.93;3.17;;;;;;;10.12;85.67;101632.13;5174841;28;20030;-77
2022/04/30 05:15:54;;;;;;;7.60;3.28;;;;;;;10.16;85.49;101631.19;5170790;28;20018;-76
2022/04/30 05:18:24;;;;;;;10.13;3.17;;;;;;;10.33;84.94;101627.38;5176100;28;20112;-77
2022/04/30 05:20:54;;;;;;;7.93;3.33;;;;;;;10.30;86.39;101629.19;5183100;28;20662;-76
2022/04/30 05:23:25;;;;;;;8.90;3.30;;;;;;;10.09;87.47;101637.41;5171583;28;20030;-76
2022/04/30 05:25:55;;;;;;;10.32;3.63;;;;;;;10.02;87.18;101630.56;5171911;28;20030;-76
2022/04/30 05:28:25;;;;;;;9.32;3.35;;;;;;;9.95;88.41;101639.34;5172509;28;20281;-76
2022/04/30 05:30:55;;;;;;;13.48;3.60;;;;;;;9.75;87.22;101637.06;5171951;28;20084;-75
2022/04/30 05:33:26;;;;;;;11.75;3.55;;;;;;;10.13;88.12;101634.72;5172330;28;20608;-76
2022/04/30 05:35:57;;;;;;;8.23;3.17;;;;;;;10.34;86.61;101638.72;5172160;28;20026;-76
2022/04/30 05:38:28;;;;;;;10.50;3.05;;;;;;;10.20;86.32;101632.88;5172313;28;20476;-76
2022/04/30 05:40:58;;;;;;;9.52;3.22;;;;;;;10.13;86.26;101631.25;5171395;28;20058;-78
2022/04/30 05:43:28;;;;;;;8.00;3.40;;;;;;;9.69;88.92;101636.28;5168370;28;20025;-77
2022/04/30 05:45:59;;;;;;;10.50;3.70;;;;;;;9.66;89.77;101646.78;5186047;28;20041;-78
2022/04/30 05:48:29;;;;;;;7.88;3.10;;;;;;;9.78;88.53;101646.56;5180869;28;20036;-78
2022/04/30 05:51:01;;;;;;;9.95;3.40;;;;;;;9.68;88.88;101642.38;5184007;28;20072;-75
2022/04/30 05:53:32;;;;;;;9.70;3.40;;;;;;;9.86;89.47;101642.94;5172765;28;20038;-75
2022/04/30 05:56:02;;;;;;;9.93;3.60;;;;;;;9.94;88.31;101643.72;5172658;28;20018;-75
2022/04/30 05:58:33;;;;;;;10.85;3.35;;;;;;;9.98;87.08;101645.38;5174376;28;20041;-77
2022/04/30 06:01:05;;;;;;;7.13;3.30;;;;;;;9.79;88.43;101657.00;5175213;28;20520;-77
2022/04/30 06:03:35;;;;;;;11.73;3.40;;;;;;;9.68;89.48;101651.06;5175516;28;20027;-77
2022/04/30 06:06:05;;;;;;;10.85;3.85;;;;;;;9.57;89.78;101660.81;5175654;28;20231;-75
2022/04/30 06:08:36;;;;;;;6.68;3.20;;;;;;;9.24;90.77;101656.06;5175396;28;20034;-78
2022/04/30 06:11:07;;;;;;;8.73;3.63;;;;;;;9.49;90.47;101660.03;5176518;28;20041;-76
2022/04/30 06:13:38;;;;;;;8.93;3.80;;;;;;;9.60;90.08;101660.78;5172940;28;20098;-76
2022/04/30 06:16:08;;;;;;;10.93;3.70;;;;;;;9.82;89.73;101656.09;5175648;28;20064;-78
2022/04/30 06:18:38;;;;;;;13.13;3.65;;;;;;;9.71;90.01;101665.81;5181584;28;20022;-74
2022/04/30 06:21:08;;;;;;;9.20;3.75;;;;;;;9.66;89.69;101662.44;5181925;28;20022;-75
2022/04/30 06:23:39;;;;;;;9.82;3.60;;;;;;;9.71;90.27;101660.59;5175767;28;20026;-74
2022/04/30 06:26:09;;;;;;;13.23;4.00;;;;;;;9.76;88.64;101664.88;5178304;28;20053;-77
2022/04/30 06:28:39;;;;;;;8.30;3.67;;;;;;;10.03;88.56;101661.00;5207890;22;20053;-76
2022/04/30 06:31:10;;;;;;;11.52;2.95;;;;;;;10.13;87.48;101657.38;5223789;28;20025;-77
2022/04/30 06:33:40;;;;;;;11.32;3.58;;;;;;;10.10;87.41;101665.25;5215204;28;20136;-77
2022/04/30 06:36:10;;;;;;;11.27;3.85;;;;;;;10.02;87.34;101657.53;5217953;28;20021;-75
2022/04/30 06:38:43;;;;;;;8.10;3.33;;;;;;;9.98;87.91;101663.66;5205708;28;20104;-75
2022/04/30 06:41:14;;;;;;;9.88;3.55;;;;;;;10.26;87.01;101648.44;5186498;28;20518;-79
2022/04/30 06:43:44;;;;;;;10.00;3.53;;;;;;;10.36;87.67;101660.47;5189571;28;20209;-79
2022/04/30 06:46:15;;;;;;;8.13;3.25;;;;;;;10.36;87.17;101647.41;5196341;28;20163;-78
2022/04/30 06:48:45;;;;;;;11.60;3.55;;;;;;;10.21;86.02;101660.72;5186902;28;20117;-81
2022/04/30 06:51:16;;;;;;;10.88;3.22;;;;;;;10.29;85.61;101656.22;5185214;28;20117;-81
2022/04/30 06:59:24;;;;;;;10.32;3.35;;;;;;;10.45;85.92;101649.81;5182720;28;20260;-79
2022/04/30 07:02:02;;;;;;;8.48;2.92;;;;;;;10.57;84.73;101647.88;5182302;28;20017;-79
2022/04/30 07:04:32;;;;;;;7.63;3.05;;;;;;;10.32;85.15;101650.94;5182001;28;20093;-79
2022/04/30 07:07:03;;;;;;;8.60;3.65;;;;;;;10.20;86.01;101648.53;5181550;28;20109;-79
2022/04/30 07:09:33;;;;;;;10.23;3.10;;;;;;;10.31;85.23;101652.69;5181933;28;20033;-78
2022/04/30 07:12:06;;;;;;;9.82;3.05;;;;;;;10.64;84.63;101653.81;5186101;28;20029;-79
2022/04/30 07:14:37;;;;;;;8.02;2.90;;;;;;;10.52;83.90;101643.63;5180346;28;20029;-79
2022/04/30 07:17:09;;;;;;;7.13;2.80;;;;;;;10.61;84.14;101648.66;5184423;28;20284;-79
2022/04/30 07:19:40;;;;;;;8.45;2.60;;;;;;;10.53;83.68;101637.50;5196076;28;20083;-79
2022/04/30 07:22:11;;;;;;;4.32;2.70;;;;;;;10.54;83.25;101642.69;5189737;28;20391;-79
2022/04/30 07:24:41;;;;;;;9.82;2.78;;;;;;;10.37;85.30;101643.88;5184455;28;20034;-79
2022/04/30 07:27:11;;;;;;;13.93;2.83;;;;;;;10.64;83.38;101651.22;5183802;28;20224;-81
2022/04/30 07:29:41;;;;;;;9.65;3.00;;;;;;;10.66;83.45;101639.84;5184065;28;20636;-78
2022/04/30 07:32:12;;;;;;;6.82;2.67;;;;;;;10.70;83.22;101640.66;5183709;28;20017;-79
2022/04/30 07:34:42;;;;;;;9.07;2.70;;;;;;;10.66;82.90;101649.47;5185491;28;20088;-77
2022/04/30 07:37:13;;;;;;;9.32;2.80;;;;;;;10.54;84.77;101642.69;5185018;28;20061;-78
2022/04/30 07:39:43;;;;;;;7.80;2.95;;;;;;;11.02;83.44;101649.59;5184554;28;20468;-81
2022/04/30 07:42:13;;;;;;;6.53;2.70;;;;;;;11.42;81.47;101646.09;5185469;28;20080;-80
2022/04/30 07:44:43;;;;;;;9.00;3.00;;;;;;;11.83;80.46;101635.59;5194752;28;20045;-79
2022/04/30 07:47:14;;;;;;;9.23;2.70;;;;;;;11.87;78.81;101642.47;5195431;28;20471;-80
2022/04/30 07:49:44;;;;;;;8.90;2.67;;;;;;;11.72;79.15;101640.22;5200508;28;20025;-79
2022/04/30 07:52:15;;;;;;;9.30;2.63;;;;;;;11.97;78.24;101649.19;5192798;28;20320;-79
2022/04/30 07:54:45;;;;;;;7.15;2.70;;;;;;;12.12;77.07;101640.97;5187550;28;20025;-81
2022/04/30 07:57:16;;;;;;;4.47;2.40;;;;;;;12.09;75.92;101648.06;5187031;28;20041;-80
2022/04/30 07:59:47;;;;;;;7.55;2.60;;;;;;;12.21;75.93;101643.38;5188963;28;20025;-79
2022/04/30 08:02:18;;;;;;;5.35;2.08;;;;;;;12.73;74.89;101648.97;5187802;28;20051;-79
2022/04/30 08:04:48;;;;;;;9.07;2.47;;;;;;;12.51;74.82;101647.84;5188502;28;20034;-80
2022/04/30 08:07:18;;;;;;;7.47;2.60;;;;;;;12.63;75.30;101647.50;5188164;28;20308;-79
2022/04/30 08:09:48;;;;;;;5.90;2.17;;;;;;;12.62;74.68;101651.03;5187718;28;20518;-79
2022/04/30 08:12:20;;;;;;;8.40;2.47;;;;;;;13.03;73.61;101653.41;5187064;28;20612;-80
2022/04/30 08:14:50;;;;;;;6.43;2.50;;;;;;;12.83;74.20;101639.94;5189174;28;20395;-81
2022/04/30 08:17:20;;;;;;;7.60;2.63;;;;;;;13.57;72.13;101647.38;5186482;28;20033;-80
2022/04/30 08:19:51;;;;;;;5.10;2.38;;;;;;;13.90;71.34;101640.22;5198569;28;20083;-80
2022/04/30 08:22:22;;;;;;;7.20;2.47;;;;;;;13.69;70.42;101640.88;5187662;28;20452;-79
2022/04/30 08:24:52;;;;;;;7.68;2.05;;;;;;;14.42;69.15;101635.00;5183808;28;20030;-82
2022/04/30 08:27:23;;;;;;;8.87;2.33;;;;;;;14.72;67.65;101632.13;5187436;28;20034;-79
2022/04/30 08:29:53;;;;;;;6.35;2.40;;;;;;;14.88;67.58;101631.50;5188471;28;20277;-80
2022/04/30 08:32:24;;;;;;;9.10;2.47;;;;;;;15.23;67.01;101620.56;5185951;28;20022;-79
2022/04/30 08:34:55;;;;;;;8.57;2.33;;;;;;;14.65;70.06;101628.03;5187245;28;20348;-80
2022/04/30 08:37:26;;;;;;;9.43;2.30;;;;;;;14.97;66.94;101623.28;5186795;28;20058;-81
2022/04/30 08:39:56;;;;;;;5.55;2.10;;;;;;;14.99;67.86;101628.53;5186321;28;20280;-81
2022/04/30 08:42:27;;;;;;;5.22;2.25;;;;;;;14.66;68.10;101632.38;5189407;28;20510;-81
2022/04/30 08:44:57;;;;;;;6.28;2.47;;;;;;;14.61;69.62;101622.91;5193551;28;20034;-81
2022/04/30 08:47:29;;;;;;;6.57;2.47;;;;;;;14.78;70.40;101625.81;5191938;28;20040;-81
2022/04/30 08:50:00;;;;;;;5.28;2.30;;;;;;;15.00;68.34;101624.97;5201560;28;20051;-79
2022/04/30 08:52:30;;;;;;;4.07;1.95;;;;;;;15.14;66.84;101613.00;5190501;28;20013;-81
2022/04/30 08:55:00;;;;;;;4.40;2.40;;;;;;;15.00;67.35;101615.28;5188894;28;20063;-81
2022/04/30 08:57:31;;;;;;;6.75;2.33;;;;;;;14.95;67.56;101611.97;5189318;28;20284;-79
2022/04/30 09:00:04;;;;;;;6.85;2.10;;;;;;;14.91;66.52;101610.38;5188969;28;20034;-81
2022/04/30 09:02:35;;;;;;;4.80;2.00;;;;;;;14.50;67.72;101607.50;5189546;28;20018;-80
2022/04/30 09:05:13;;;;;;;5.55;2.13;;;;;;;14.04;68.95;101609.06;5191842;28;20476;-84
2022/04/30 09:07:54;;;;;;;8.15;2.38;;;;;;;14.29;68.13;101616.09;5206562;28;20041;-81
2022/04/30 09:10:27;;;;;;;9.35;2.85;;;;;;;14.34;68.47;101613.34;5199385;28;20026;-79
2022/04/30 09:13:10;;;;;;;9.70;3.08;;;;;;;14.40;68.34;101600.00;5189407;28;20033;-81
2022/04/30 09:15:45;;;;;;;7.13;2.45;;;;;;;14.81;67.96;101594.97;5185849;28;20076;-83
2022/04/30 09:18:17;;;;;;;;;;;;;;;14.61;68.00;101593.97;5189041;28;20035;-83
2022/04/30 09:20:49;;;;;;;8.65;2.22;;;;;;;14.24;68.87;101597.00;5196794;28;20158;-79
2022/04/30 09:23:27;;;;;;;7.85;2.67;;;;;;;14.60;67.45;101594.88;5183589;28;20029;-78
2022/04/30 09:26:02;;;;;;;5.00;2.33;;;;;;;14.26;67.93;101595.19;5185686;28;20109;-79
2022/04/30 09:28:37;;;;;;;5.80;2.45;;;;;;;14.25;69.10;101590.00;5194027;28;20098;-78
2022/04/30 09:31:20;;;;;;;10.75;2.30;;;;;;;14.31;68.72;101585.38;5189090;28;20093;-79
2022/04/30 09:33:51;;;;;;;4.78;2.28;;;;;;;14.17;68.14;101578.88;5189707;28;20018;-79
2022/04/30 09:39:16;;;;;;;8.50;2.08;;;;;;;14.72;68.03;101581.25;5188503;28;20297;-79
2022/04/30 09:41:46;;;;;;;6.22;2.38;;;;;;;14.47;68.36;101583.94;5191145;28;20022;-79
2022/04/30 09:44:17;;;;;;;7.32;2.30;;;;;;;14.84;68.45;101577.28;5195192;28;20022;-79
2022/04/30 09:46:48;;;;;;;9.15;2.13;;;;;;;14.84;68.08;101577.28;5190931;28;20033;-78
2022/04/30 09:55:01;;;;;;;7.38;2.30;;;;;;;15.29;66.08;101574.69;5176094;28;20169;-79
2022/04/30 09:57:34;;;;;;;6.10;2.50;;;;;;;15.11;66.50;101581.50;5192044;28;20049;-79
2022/04/30 10:00:08;;;;;;;8.63;2.40;;;;;;;15.44;66.39;101568.84;5203562;28;20021;-78
2022/04/30 10:02:38;;;;;;;4.60;2.40;;;;;;;15.78;66.31;101582.38;5199284;28;20032;-78
2022/04/30 10:05:09;;;;;;;4.60;2.10;;;;;;;16.21;64.01;101584.97;5197198;28;20025;-79
2022/04/30 10:07:40;;;;;;;5.53;2.50;;;;;;;15.76;65.34;101578.94;5194833;28;20029;-77
2022/04/30 10:10:21;;;;;;;7.55;2.67;;;;;;;15.87;65.80;101579.38;5193062;28;20080;-79
2022/04/30 10:13:21;;;;;;;6.72;2.42;;;;;;;16.09;64.18;101581.06;5197611;28;20026;-79
2022/04/30 10:15:57;;;;;;;7.18;2.38;;;;;;;16.14;64.62;101571.16;5197400;28;20241;-79
2022/04/30 10:18:34;;;;;;;;;;;;;;;16.20;65.57;101562.97;5198132;28;20025;-79
2022/04/30 10:21:15;;;;;;;6.57;2.42;;;;;;;16.05;63.72;101568.91;5196814;28;19913;-78
2022/04/30 10:23:45;;;;;;;6.70;2.35;;;;;;;15.47;65.75;101574.84;5190932;28;20519;-80
2022/04/30 10:26:16;;;;;;;7.07;2.63;;;;;;;15.82;65.69;101574.28;5192796;28;20026;-79
2022/04/30 10:28:57;;;;;;;9.90;2.60;;;;;;;15.73;64.93;101572.00;5192674;28;20034;-79
2022/04/30 10:31:27;;;;;;;7.03;2.88;;;;;;;15.79;64.08;101571.78;5192498;28;20037;-79
2022/04/30 10:33:57;;;;;;;5.80;2.60;;;;;;;15.74;64.09;101568.44;5191311;28;20021;-79
2022/04/30 10:36:33;;;;;;;7.10;2.65;;;;;;;15.87;64.63;101572.31;5190778;28;20128;-77
2022/04/30 10:39:06;;;;;;;;;;;;;;;15.63;64.99;101561.91;5193657;28;20022;-78
2022/04/30 10:41:43;;;;;;;6.97;2.58;;;;;;;15.64;65.77;101561.84;5190287;28;20402;-78
2022/04/30 10:44:14;;;;;;;7.10;2.92;;;;;;;15.45;65.43;101565.28;5193358;28;20061;-78
2022/04/30 10:46:45;;;;;;;6.93;3.00;;;;;;;15.72;64.71;101553.63;5190784;28;20021;-79
2022/04/30 10:49:15;;;;;;;4.93;2.70;;;;;;;15.41;64.95;101555.78;5201568;28;20086;-78
2022/04/30 10:51:45;;;;;;;6.50;2.97;;;;;;;15.66;64.43;101554.75;5197219;28;20112;-79
2022/04/30 10:54:19;;;;;;;10.10;3.13;;;;;;;15.84;66.30;101553.16;5189145;28;20272;-78
2022/04/30 10:57:04;;;;;;;6.45;2.67;;;;;;;15.84;66.17;101551.34;5189611;28;20115;-78
2022/04/30 10:59:34;;;;;;;6.68;2.53;;;;;;;16.07;65.17;101540.69;5187765;28;20364;-78
2022/04/30 11:02:05;;;;;;;9.93;3.00;;;;;;;16.06;64.37;101546.88;5190396;28;20032;-78
2022/04/30 11:04:35;;;;;;;8.05;2.63;;;;;;;15.62;64.87;101542.63;5188778;28;20076;-77
2022/04/30 11:07:05;;;;;;;6.00;2.47;;;;;;;15.38;63.96;101548.84;5192665;28;20375;-78
2022/04/30 11:09:43;;;;;;;8.02;2.97;;;;;;;15.61;65.87;101540.91;5203691;28;20025;-79
2022/04/30 11:12:16;;;;;;;5.65;2.63;;;;;;;15.65;64.85;101542.47;5189988;28;20033;-76
2022/04/30 11:14:47;;;;;;;8.25;3.22;;;;;;;15.28;65.36;101542.22;5194326;28;20025;-78
2022/04/30 11:17:17;;;;;;;8.70;3.30;;;;;;;14.97;66.05;101549.59;5189218;28;20100;-78
2022/04/30 11:19:48;;;;;;;8.25;3.05;;;;;;;15.21;66.05;101546.00;5201151;28;20052;-77
2022/04/30 11:22:20;;;;;;;6.00;2.93;;;;;;;15.39;65.03;101529.50;5192295;28;20102;-78
2022/04/30 11:24:56;;;;;;;10.32;3.30;;;;;;;15.12;65.62;101534.97;5189178;28;20288;-77
2022/04/30 11:27:31;;;;;;;7.85;2.92;;;;;;;15.46;65.53;101523.06;5188651;28;20045;-77
2022/04/30 11:30:03;;;;;;;8.73;2.60;;;;;;;15.15;65.25;101525.16;5185735;28;20052;-77
2022/04/30 11:32:33;;;;;;;8.05;3.08;;;;;;;15.29;64.52;101522.88;5189033;28;20021;-78
2022/04/30 11:35:04;;;;;;;6.68;2.72;;;;;;;15.30;65.05;101523.72;5187868;28;20515;-78
2022/04/30 11:37:39;;;;;;;6.03;2.50;;;;;;;15.39;64.76;101518.94;5188915;28;20038;-78
2022/04/30 11:40:10;;;;;;;5.63;2.63;;;;;;;15.04;63.57;101519.44;5188065;28;20478;-77
2022/04/30 11:42:41;;;;;;;4.78;2.20;;;;;;;14.70;63.48;101504.16;5193245;28;20021;-78
2022/04/30 11:45:11;;;;;;;5.55;2.50;;;;;;;14.95;63.61;101511.06;5197502;28;20592;-78
2022/04/30 11:47:48;;;;;;;6.60;2.78;;;;;;;14.91;63.25;101505.06;5188631;28;20026;-78
2022/04/30 11:50:19;;;;;;;5.13;3.00;;;;;;;14.34;63.83;101501.13;5202355;28;20048;-78
2022/04/30 11:52:50;;;;;;;5.78;2.38;;;;;;;14.67;64.18;101509.53;5187649;28;20026;-78
2022/04/30 11:55:21;;;;;;;7.38;2.53;;;;;;;15.07;64.63;101500.94;5188175;28;20057;-78
2022/04/30 11:57:51;;;;;;;6.80;2.80;;;;;;;15.31;64.36;101499.09;5187197;28;20034;-78
2022/04/30 12:00:22;;;;;;;5.57;2.22;;;;;;;15.30;65.09;101495.63;5188109;28;20030;-78
2022/04/30 12:02:55;;;;;;;5.57;2.33;;;;;;;15.41;63.27;101489.91;5187835;28;20026;-78
2022/04/30 12:05:25;;;;;;;6.53;2.50;;;;;;;15.66;63.90;101487.97;5188916;28;20042;-79
2022/04/30 12:08:00;;;;;;;8.43;2.67;;;;;;;15.33;64.26;101487.59;5187816;28;20109;-78
2022/04/30 12:10:30;;;;;;;5.68;2.63;;;;;;;15.27;63.51;101479.91;5186659;28;20026;-78
2022/04/30 12:13:01;;;;;;;8.40;2.50;;;;;;;15.62;63.67;101481.13;5186904;28;20053;-79
2022/04/30 12:15:33;;;;;;;6.25;2.60;;;;;;;15.50;64.00;101477.22;5188974;28;20101;-78
2022/04/30 12:27:02;;;;;;;9.65;2.80;;;;;;;15.34;64.24;101478.78;5186802;28;20041;-79
2022/04/30 12:29:32;;;;;;;6.72;3.03;;;;;;;15.38;63.68;101474.25;5184209;28;20029;-80